sensor_id;sensor_type;location;lat;lon;timestamp;P1;durP1;ratioP1;P2;durP2;ratioP2
7983;SDS011;4037;47.980;10.172;2024-01-27T00:01:37;3.10;;;2.50;;
7983;SDS011;4037;47.980;10.172;2024-01-27T00:04:03;3.90;;;2.90;;
7983;SDS011;4037;47.980;10.172;2024-01-27T00:06:29;3.70;;;2.57;;
7983;SDS011;4037;47.980;10.172;2024-01-27T00:08:55;3.80;;;3.20;;
7983;SDS011;4037;47.980;10.172;2024-01-27T00:11:21;3.83;;;3.30;;
7983;SDS011;4037;47.980;10.172;2024-01-27T00:13:49;3.33;;;2.40;;
7983;SDS011;4037;47.980;10.172;2024-01-27T00:16:15;3.10;;;2.53;;
7983;SDS011;4037;47.980;10.172;2024-01-27T00:18:41;4.13;;;3.57;;
7983;SDS011;4037;47.980;10.172;2024-01-27T00:21:07;3.50;;;3.20;;
7983;SDS011;4037;47.980;10.172;2024-01-27T00:23:33;5.00;;;3.33;;
7983;SDS011;4037;47.980;10.172;2024-01-27T00:26:00;6.73;;;3.60;;
7983;SDS011;4037;47.980;10.172;2024-01-27T00:28:26;5.37;;;3.10;;
7983;SDS011;4037;47.980;10.172;2024-01-27T00:30:52;4.07;;;3.23;;
7983;SDS011;4037;47.980;10.172;2024-01-27T00:33:18;4.13;;;2.93;;
7983;SDS011;4037;47.980;10.172;2024-01-27T00:35:44;4.90;;;3.40;;
7983;SDS011;4037;47.980;10.172;2024-01-27T00:38:10;3.83;;;3.40;;
7983;SDS011;4037;47.980;10.172;2024-01-27T00:40:36;4.53;;;3.50;;
7983;SDS011;4037;47.980;10.172;2024-01-27T00:43:02;3.70;;;3.20;;
7983;SDS011;4037;47.980;10.172;2024-01-27T00:45:28;4.60;;;3.40;;
7983;SDS011;4037;47.980;10.172;2024-01-27T00:47:55;4.07;;;3.57;;
7983;SDS011;4037;47.980;10.172;2024-01-27T00:50:21;4.80;;;3.73;;
7983;SDS011;4037;47.980;10.172;2024-01-27T00:52:47;4.40;;;3.17;;
7983;SDS011;4037;47.980;10.172;2024-01-27T00:55:13;3.83;;;3.33;;
7983;SDS011;4037;47.980;10.172;2024-01-27T00:57:39;5.60;;;3.30;;
7983;SDS011;4037;47.980;10.172;2024-01-27T01:00:06;4.03;;;3.23;;
7983;SDS011;4037;47.980;10.172;2024-01-27T01:02:32;3.33;;;3.03;;
7983;SDS011;4037;47.980;10.172;2024-01-27T01:04:58;3.07;;;2.77;;
7983;SDS011;4037;47.980;10.172;2024-01-27T01:07:24;2.97;;;2.67;;
7983;SDS011;4037;47.980;10.172;2024-01-27T01:09:50;4.50;;;2.97;;
7983;SDS011;4037;47.980;10.172;2024-01-27T01:12:16;3.53;;;3.10;;
7983;SDS011;4037;47.980;10.172;2024-01-27T01:14:45;5.20;;;2.80;;
7983;SDS011;4037;47.980;10.172;2024-01-27T01:17:12;3.50;;;2.50;;
7983;SDS011;4037;47.980;10.172;2024-01-27T01:19:38;9.53;;;2.80;;
7983;SDS011;4037;47.980;10.172;2024-01-27T01:22:04;4.43;;;3.23;;
7983;SDS011;4037;47.980;10.172;2024-01-27T01:24:30;3.63;;;2.70;;
7983;SDS011;4037;47.980;10.172;2024-01-27T01:26:56;3.30;;;3.00;;
7983;SDS011;4037;47.980;10.172;2024-01-27T01:29:22;2.77;;;2.57;;
7983;SDS011;4037;47.980;10.172;2024-01-27T01:31:48;3.13;;;2.50;;
7983;SDS011;4037;47.980;10.172;2024-01-27T01:34:15;3.97;;;2.60;;
7983;SDS011;4037;47.980;10.172;2024-01-27T01:36:41;4.67;;;2.87;;
7983;SDS011;4037;47.980;10.172;2024-01-27T01:39:07;2.83;;;2.60;;
7983;SDS011;4037;47.980;10.172;2024-01-27T01:41:33;3.93;;;2.83;;
7983;SDS011;4037;47.980;10.172;2024-01-27T01:43:59;4.27;;;2.97;;
7983;SDS011;4037;47.980;10.172;2024-01-27T01:46:25;3.77;;;2.63;;
7983;SDS011;4037;47.980;10.172;2024-01-27T01:48:51;4.43;;;2.30;;
7983;SDS011;4037;47.980;10.172;2024-01-27T01:51:18;2.93;;;2.67;;
7983;SDS011;4037;47.980;10.172;2024-01-27T01:53:45;3.67;;;2.90;;
7983;SDS011;4037;47.980;10.172;2024-01-27T01:56:13;3.03;;;2.50;;
7983;SDS011;4037;47.980;10.172;2024-01-27T01:58:39;4.57;;;2.13;;
7983;SDS011;4037;47.980;10.172;2024-01-27T02:01:05;2.73;;;2.50;;
7983;SDS011;4037;47.980;10.172;2024-01-27T02:03:31;2.80;;;2.50;;
7983;SDS011;4037;47.980;10.172;2024-01-27T02:05:57;3.40;;;2.30;;
7983;SDS011;4037;47.980;10.172;2024-01-27T02:08:23;2.50;;;2.30;;
7983;SDS011;4037;47.980;10.172;2024-01-27T02:10:49;2.90;;;2.60;;
7983;SDS011;4037;47.980;10.172;2024-01-27T02:13:16;4.23;;;2.33;;
7983;SDS011;4037;47.980;10.172;2024-01-27T02:15:43;3.40;;;2.33;;
7983;SDS011;4037;47.980;10.172;2024-01-27T02:18:09;2.40;;;2.20;;
7983;SDS011;4037;47.980;10.172;2024-01-27T02:20:35;4.67;;;2.37;;
7983;SDS011;4037;47.980;10.172;2024-01-27T02:23:02;3.90;;;3.33;;
7983;SDS011;4037;47.980;10.172;2024-01-27T02:25:29;3.43;;;2.63;;
7983;SDS011;4037;47.980;10.172;2024-01-27T02:27:55;2.93;;;2.33;;
7983;SDS011;4037;47.980;10.172;2024-01-27T02:30:21;3.90;;;2.47;;
7983;SDS011;4037;47.980;10.172;2024-01-27T02:32:47;2.63;;;2.10;;
7983;SDS011;4037;47.980;10.172;2024-01-27T02:35:13;5.53;;;3.20;;
7983;SDS011;4037;47.980;10.172;2024-01-27T02:37:40;3.37;;;2.90;;
7983;SDS011;4037;47.980;10.172;2024-01-27T02:40:06;3.20;;;2.90;;
7983;SDS011;4037;47.980;10.172;2024-01-27T02:42:33;4.43;;;2.97;;
7983;SDS011;4037;47.980;10.172;2024-01-27T02:44:59;3.17;;;2.47;;
7983;SDS011;4037;47.980;10.172;2024-01-27T02:47:25;4.20;;;2.70;;
7983;SDS011;4037;47.980;10.172;2024-01-27T02:49:51;2.80;;;2.40;;
7983;SDS011;4037;47.980;10.172;2024-01-27T02:52:17;4.33;;;2.73;;
7983;SDS011;4037;47.980;10.172;2024-01-27T02:54:43;4.90;;;2.70;;
7983;SDS011;4037;47.980;10.172;2024-01-27T02:57:10;5.07;;;3.70;;
7983;SDS011;4037;47.980;10.172;2024-01-27T02:59:36;3.10;;;2.80;;
7983;SDS011;4037;47.980;10.172;2024-01-27T03:02:04;3.00;;;2.67;;
7983;SDS011;4037;47.980;10.172;2024-01-27T03:04:30;3.53;;;3.23;;
7983;SDS011;4037;47.980;10.172;2024-01-27T03:06:56;3.20;;;2.90;;
7983;SDS011;4037;47.980;10.172;2024-01-27T03:09:22;2.90;;;2.40;;
7983;SDS011;4037;47.980;10.172;2024-01-27T03:11:48;3.07;;;2.50;;
7983;SDS011;4037;47.980;10.172;2024-01-27T03:14:14;3.10;;;2.80;;
7983;SDS011;4037;47.980;10.172;2024-01-27T03:16:40;3.17;;;2.70;;
7983;SDS011;4037;47.980;10.172;2024-01-27T03:19:06;5.23;;;3.20;;
7983;SDS011;4037;47.980;10.172;2024-01-27T03:21:32;4.07;;;2.67;;
7983;SDS011;4037;47.980;10.172;2024-01-27T03:23:58;4.47;;;3.17;;
7983;SDS011;4037;47.980;10.172;2024-01-27T03:26:24;2.83;;;2.53;;
7983;SDS011;4037;47.980;10.172;2024-01-27T03:28:50;3.10;;;2.80;;
7983;SDS011;4037;47.980;10.172;2024-01-27T03:31:16;4.03;;;2.97;;
7983;SDS011;4037;47.980;10.172;2024-01-27T03:33:42;2.97;;;2.63;;
7983;SDS011;4037;47.980;10.172;2024-01-27T03:36:12;4.63;;;2.87;;
7983;SDS011;4037;47.980;10.172;2024-01-27T03:38:38;3.50;;;3.20;;
7983;SDS011;4037;47.980;10.172;2024-01-27T03:41:04;2.97;;;2.67;;
7983;SDS011;4037;47.980;10.172;2024-01-27T03:43:30;5.50;;;3.07;;
7983;SDS011;4037;47.980;10.172;2024-01-27T03:45:57;3.27;;;2.50;;
7983;SDS011;4037;47.980;10.172;2024-01-27T03:48:23;6.23;;;3.80;;
7983;SDS011;4037;47.980;10.172;2024-01-27T03:50:49;3.97;;;2.93;;
7983;SDS011;4037;47.980;10.172;2024-01-27T03:53:15;2.83;;;2.53;;
7983;SDS011;4037;47.980;10.172;2024-01-27T03:55:41;6.23;;;3.50;;
7983;SDS011;4037;47.980;10.172;2024-01-27T03:58:07;3.17;;;2.80;;
7983;SDS011;4037;47.980;10.172;2024-01-27T04:00:33;6.20;;;3.53;;
7983;SDS011;4037;47.980;10.172;2024-01-27T04:02:59;3.63;;;3.17;;
7983;SDS011;4037;47.980;10.172;2024-01-27T04:05:25;4.07;;;2.97;;
7983;SDS011;4037;47.980;10.172;2024-01-27T04:07:51;3.30;;;2.97;;
7983;SDS011;4037;47.980;10.172;2024-01-27T04:10:18;3.40;;;3.10;;
7983;SDS011;4037;47.980;10.172;2024-01-27T04:12:45;6.10;;;3.77;;
7983;SDS011;4037;47.980;10.172;2024-01-27T04:15:11;3.13;;;2.90;;
7983;SDS011;4037;47.980;10.172;2024-01-27T04:17:37;6.37;;;3.27;;
7983;SDS011;4037;47.980;10.172;2024-01-27T04:20:03;3.60;;;3.20;;
7983;SDS011;4037;47.980;10.172;2024-01-27T04:22:30;4.07;;;3.13;;
7983;SDS011;4037;47.980;10.172;2024-01-27T04:24:56;4.40;;;3.53;;
7983;SDS011;4037;47.980;10.172;2024-01-27T04:27:22;4.73;;;3.67;;
7983;SDS011;4037;47.980;10.172;2024-01-27T04:29:48;5.43;;;3.63;;
7983;SDS011;4037;47.980;10.172;2024-01-27T04:32:14;3.43;;;3.13;;
7983;SDS011;4037;47.980;10.172;2024-01-27T04:34:40;4.13;;;3.30;;
7983;SDS011;4037;47.980;10.172;2024-01-27T04:37:06;5.13;;;3.60;;
7983;SDS011;4037;47.980;10.172;2024-01-27T04:39:32;4.33;;;3.20;;
7983;SDS011;4037;47.980;10.172;2024-01-27T04:41:58;5.73;;;3.03;;
7983;SDS011;4037;47.980;10.172;2024-01-27T04:44:24;4.43;;;3.10;;
7983;SDS011;4037;47.980;10.172;2024-01-27T04:46:50;4.13;;;3.23;;
7983;SDS011;4037;47.980;10.172;2024-01-27T04:49:16;3.30;;;2.93;;
7983;SDS011;4037;47.980;10.172;2024-01-27T04:51:42;3.20;;;2.90;;
7983;SDS011;4037;47.980;10.172;2024-01-27T04:54:08;2.57;;;2.37;;
7983;SDS011;4037;47.980;10.172;2024-01-27T04:56:34;2.70;;;2.50;;
7983;SDS011;4037;47.980;10.172;2024-01-27T04:59:01;3.90;;;2.43;;
7983;SDS011;4037;47.980;10.172;2024-01-27T05:01:28;2.87;;;2.57;;
7983;SDS011;4037;47.980;10.172;2024-01-27T05:03:54;3.20;;;2.60;;
7983;SDS011;4037;47.980;10.172;2024-01-27T05:06:20;2.70;;;2.50;;
7983;SDS011;4037;47.980;10.172;2024-01-27T05:08:46;4.03;;;3.17;;
7983;SDS011;4037;47.980;10.172;2024-01-27T05:11:12;2.87;;;2.67;;
7983;SDS011;4037;47.980;10.172;2024-01-27T05:13:39;2.50;;;2.30;;
7983;SDS011;4037;47.980;10.172;2024-01-27T05:16:05;2.83;;;2.63;;
7983;SDS011;4037;47.980;10.172;2024-01-27T05:18:31;2.97;;;2.43;;
7983;SDS011;4037;47.980;10.172;2024-01-27T05:20:57;3.43;;;3.03;;
7983;SDS011;4037;47.980;10.172;2024-01-27T05:23:23;3.17;;;2.70;;
7983;SDS011;4037;47.980;10.172;2024-01-27T05:25:49;3.23;;;2.50;;
7983;SDS011;4037;47.980;10.172;2024-01-27T05:28:15;2.30;;;2.10;;
7983;SDS011;4037;47.980;10.172;2024-01-27T05:30:42;2.50;;;2.30;;
7983;SDS011;4037;47.980;10.172;2024-01-27T05:33:08;3.20;;;2.90;;
7983;SDS011;4037;47.980;10.172;2024-01-27T05:35:34;2.97;;;2.70;;
7983;SDS011;4037;47.980;10.172;2024-01-27T05:38:00;2.93;;;2.63;;
7983;SDS011;4037;47.980;10.172;2024-01-27T05:40:27;3.60;;;3.07;;
7983;SDS011;4037;47.980;10.172;2024-01-27T05:42:53;4.67;;;3.43;;
7983;SDS011;4037;47.980;10.172;2024-01-27T05:45:19;4.07;;;2.70;;
7983;SDS011;4037;47.980;10.172;2024-01-27T05:47:45;3.17;;;2.77;;
7983;SDS011;4037;47.980;10.172;2024-01-27T05:50:11;3.47;;;3.17;;
7983;SDS011;4037;47.980;10.172;2024-01-27T05:52:37;3.40;;;2.43;;
7983;SDS011;4037;47.980;10.172;2024-01-27T05:55:03;3.00;;;2.70;;
7983;SDS011;4037;47.980;10.172;2024-01-27T05:57:31;3.30;;;2.70;;
7983;SDS011;4037;47.980;10.172;2024-01-27T05:59:57;2.63;;;2.43;;
7983;SDS011;4037;47.980;10.172;2024-01-27T06:02:23;2.97;;;2.50;;
7983;SDS011;4037;47.980;10.172;2024-01-27T06:04:49;2.97;;;2.77;;
7983;SDS011;4037;47.980;10.172;2024-01-27T06:07:15;3.10;;;2.90;;
7983;SDS011;4037;47.980;10.172;2024-01-27T06:09:41;3.17;;;2.40;;
7983;SDS011;4037;47.980;10.172;2024-01-27T06:12:07;3.23;;;2.77;;
7983;SDS011;4037;47.980;10.172;2024-01-27T06:14:33;2.73;;;2.53;;
7983;SDS011;4037;47.980;10.172;2024-01-27T06:17:00;3.73;;;2.87;;
7983;SDS011;4037;47.980;10.172;2024-01-27T06:19:26;2.87;;;2.63;;
7983;SDS011;4037;47.980;10.172;2024-01-27T06:21:52;6.23;;;3.20;;
7983;SDS011;4037;47.980;10.172;2024-01-27T06:24:18;3.47;;;3.17;;
7983;SDS011;4037;47.980;10.172;2024-01-27T06:26:44;3.80;;;3.10;;
7983;SDS011;4037;47.980;10.172;2024-01-27T06:29:10;3.87;;;3.00;;
7983;SDS011;4037;47.980;10.172;2024-01-27T06:31:36;3.93;;;3.40;;
7983;SDS011;4037;47.980;10.172;2024-01-27T06:34:02;16.67;;;4.30;;
7983;SDS011;4037;47.980;10.172;2024-01-27T06:36:28;21.20;;;5.40;;
7983;SDS011;4037;47.980;10.172;2024-01-27T06:38:55;8.03;;;3.43;;
7983;SDS011;4037;47.980;10.172;2024-01-27T06:41:21;7.23;;;3.53;;
7983;SDS011;4037;47.980;10.172;2024-01-27T06:43:47;4.43;;;3.33;;
7983;SDS011;4037;47.980;10.172;2024-01-27T06:46:13;7.07;;;3.60;;
7983;SDS011;4037;47.980;10.172;2024-01-27T06:48:39;4.00;;;2.63;;
7983;SDS011;4037;47.980;10.172;2024-01-27T06:51:05;4.07;;;3.13;;
7983;SDS011;4037;47.980;10.172;2024-01-27T06:53:31;4.50;;;3.03;;
7983;SDS011;4037;47.980;10.172;2024-01-27T06:55:57;5.77;;;3.20;;
7983;SDS011;4037;47.980;10.172;2024-01-27T06:58:23;6.63;;;3.57;;
7983;SDS011;4037;47.980;10.172;2024-01-27T07:00:49;4.73;;;3.20;;
7983;SDS011;4037;47.980;10.172;2024-01-27T07:03:15;3.57;;;3.17;;
7983;SDS011;4037;47.980;10.172;2024-01-27T07:05:41;3.73;;;3.33;;
7983;SDS011;4037;47.980;10.172;2024-01-27T07:08:07;3.93;;;3.20;;
7983;SDS011;4037;47.980;10.172;2024-01-27T07:10:34;4.13;;;3.30;;
7983;SDS011;4037;47.980;10.172;2024-01-27T07:13:00;4.57;;;3.47;;
7983;SDS011;4037;47.980;10.172;2024-01-27T07:15:26;3.97;;;3.13;;
7983;SDS011;4037;47.980;10.172;2024-01-27T07:17:52;3.83;;;3.40;;
7983;SDS011;4037;47.980;10.172;2024-01-27T07:20:19;5.30;;;4.27;;
7983;SDS011;4037;47.980;10.172;2024-01-27T07:22:46;4.30;;;3.90;;
7983;SDS011;4037;47.980;10.172;2024-01-27T07:25:12;6.20;;;4.47;;
7983;SDS011;4037;47.980;10.172;2024-01-27T07:27:38;6.27;;;4.23;;
7983;SDS011;4037;47.980;10.172;2024-01-27T07:30:04;5.67;;;4.07;;
7983;SDS011;4037;47.980;10.172;2024-01-27T07:32:31;4.97;;;4.50;;
7983;SDS011;4037;47.980;10.172;2024-01-27T07:34:57;6.10;;;4.50;;
7983;SDS011;4037;47.980;10.172;2024-01-27T07:37:23;4.77;;;4.27;;
7983;SDS011;4037;47.980;10.172;2024-01-27T07:39:49;5.47;;;4.77;;
7983;SDS011;4037;47.980;10.172;2024-01-27T07:42:15;6.50;;;5.17;;
7983;SDS011;4037;47.980;10.172;2024-01-27T07:44:41;8.60;;;5.60;;
7983;SDS011;4037;47.980;10.172;2024-01-27T07:47:07;7.37;;;5.40;;
7983;SDS011;4037;47.980;10.172;2024-01-27T07:49:36;9.20;;;6.43;;
7983;SDS011;4037;47.980;10.172;2024-01-27T07:52:02;9.83;;;7.27;;
7983;SDS011;4037;47.980;10.172;2024-01-27T07:54:28;12.57;;;8.17;;
7983;SDS011;4037;47.980;10.172;2024-01-27T07:56:56;10.77;;;8.57;;
7983;SDS011;4037;47.980;10.172;2024-01-27T07:59:22;15.73;;;8.00;;
7983;SDS011;4037;47.980;10.172;2024-01-27T08:01:48;11.07;;;8.03;;
7983;SDS011;4037;47.980;10.172;2024-01-27T08:04:14;8.83;;;6.73;;
7983;SDS011;4037;47.980;10.172;2024-01-27T08:06:47;9.73;;;7.00;;
7983;SDS011;4037;47.980;10.172;2024-01-27T08:09:14;9.37;;;6.03;;
7983;SDS011;4037;47.980;10.172;2024-01-27T08:11:40;10.83;;;8.60;;
7983;SDS011;4037;47.980;10.172;2024-01-27T08:14:06;11.07;;;7.17;;
7983;SDS011;4037;47.980;10.172;2024-01-27T08:16:32;9.10;;;6.80;;
7983;SDS011;4037;47.980;10.172;2024-01-27T08:18:58;8.30;;;6.93;;
7983;SDS011;4037;47.980;10.172;2024-01-27T08:21:24;9.63;;;6.90;;
7983;SDS011;4037;47.980;10.172;2024-01-27T08:23:50;8.90;;;6.77;;
7983;SDS011;4037;47.980;10.172;2024-01-27T08:26:16;7.00;;;5.73;;
7983;SDS011;4037;47.980;10.172;2024-01-27T08:28:43;9.07;;;5.13;;
7983;SDS011;4037;47.980;10.172;2024-01-27T08:31:09;5.93;;;5.23;;
7983;SDS011;4037;47.980;10.172;2024-01-27T08:33:35;8.80;;;5.17;;
7983;SDS011;4037;47.980;10.172;2024-01-27T08:36:01;7.13;;;5.57;;
7983;SDS011;4037;47.980;10.172;2024-01-27T08:38:27;8.33;;;5.23;;
7983;SDS011;4037;47.980;10.172;2024-01-27T08:40:53;11.23;;;5.50;;
7983;SDS011;4037;47.980;10.172;2024-01-27T08:43:19;8.63;;;5.50;;
7983;SDS011;4037;47.980;10.172;2024-01-27T08:45:45;9.13;;;6.13;;
7983;SDS011;4037;47.980;10.172;2024-01-27T08:48:11;12.87;;;6.37;;
7983;SDS011;4037;47.980;10.172;2024-01-27T08:50:38;8.77;;;6.13;;
7983;SDS011;4037;47.980;10.172;2024-01-27T08:53:04;10.43;;;6.50;;
7983;SDS011;4037;47.980;10.172;2024-01-27T08:55:30;9.47;;;6.33;;
7983;SDS011;4037;47.980;10.172;2024-01-27T08:57:56;8.93;;;6.10;;
7983;SDS011;4037;47.980;10.172;2024-01-27T09:00:22;9.33;;;5.80;;
7983;SDS011;4037;47.980;10.172;2024-01-27T09:02:48;9.23;;;6.07;;
7983;SDS011;4037;47.980;10.172;2024-01-27T09:05:14;8.10;;;5.73;;
7983;SDS011;4037;47.980;10.172;2024-01-27T09:07:40;6.43;;;5.30;;
7983;SDS011;4037;47.980;10.172;2024-01-27T09:10:06;8.47;;;5.93;;
7983;SDS011;4037;47.980;10.172;2024-01-27T09:12:33;8.23;;;6.30;;
7983;SDS011;4037;47.980;10.172;2024-01-27T09:14:59;12.47;;;6.90;;
7983;SDS011;4037;47.980;10.172;2024-01-27T09:17:27;8.43;;;5.87;;
7983;SDS011;4037;47.980;10.172;2024-01-27T09:19:53;7.80;;;5.83;;
7983;SDS011;4037;47.980;10.172;2024-01-27T09:22:19;8.10;;;6.47;;
7983;SDS011;4037;47.980;10.172;2024-01-27T09:24:45;9.53;;;6.40;;
7983;SDS011;4037;47.980;10.172;2024-01-27T09:27:11;10.50;;;6.13;;
7983;SDS011;4037;47.980;10.172;2024-01-27T09:29:37;9.97;;;5.90;;
7983;SDS011;4037;47.980;10.172;2024-01-27T09:32:03;9.93;;;6.00;;
7983;SDS011;4037;47.980;10.172;2024-01-27T09:34:29;9.83;;;5.13;;
7983;SDS011;4037;47.980;10.172;2024-01-27T09:36:55;7.13;;;4.60;;
7983;SDS011;4037;47.980;10.172;2024-01-27T09:39:21;8.30;;;5.60;;
7983;SDS011;4037;47.980;10.172;2024-01-27T09:41:47;9.47;;;6.17;;
7983;SDS011;4037;47.980;10.172;2024-01-27T09:44:13;7.43;;;5.43;;
7983;SDS011;4037;47.980;10.172;2024-01-27T09:46:43;11.50;;;5.33;;
7983;SDS011;4037;47.980;10.172;2024-01-27T09:49:10;9.63;;;4.90;;
7983;SDS011;4037;47.980;10.172;2024-01-27T09:51:38;9.33;;;5.07;;
7983;SDS011;4037;47.980;10.172;2024-01-27T09:54:04;9.07;;;4.83;;
7983;SDS011;4037;47.980;10.172;2024-01-27T09:56:29;9.30;;;4.90;;
7983;SDS011;4037;47.980;10.172;2024-01-27T09:58:56;6.73;;;5.07;;
7983;SDS011;4037;47.980;10.172;2024-01-27T10:01:22;7.00;;;4.80;;
7983;SDS011;4037;47.980;10.172;2024-01-27T10:03:50;7.67;;;5.07;;
7983;SDS011;4037;47.980;10.172;2024-01-27T10:06:16;6.03;;;4.90;;
7983;SDS011;4037;47.980;10.172;2024-01-27T10:08:43;6.43;;;4.80;;
7983;SDS011;4037;47.980;10.172;2024-01-27T10:11:13;7.23;;;5.07;;
7983;SDS011;4037;47.980;10.172;2024-01-27T10:13:39;6.73;;;4.53;;
7983;SDS011;4037;47.980;10.172;2024-01-27T10:16:06;10.33;;;4.87;;
7983;SDS011;4037;47.980;10.172;2024-01-27T10:18:33;6.40;;;5.13;;
7983;SDS011;4037;47.980;10.172;2024-01-27T10:21:00;8.90;;;4.53;;
7983;SDS011;4037;47.980;10.172;2024-01-27T10:23:26;8.33;;;5.23;;
7983;SDS011;4037;47.980;10.172;2024-01-27T10:25:52;7.37;;;5.67;;
7983;SDS011;4037;47.980;10.172;2024-01-27T10:28:18;8.57;;;5.00;;
7983;SDS011;4037;47.980;10.172;2024-01-27T10:30:45;10.07;;;4.93;;
7983;SDS011;4037;47.980;10.172;2024-01-27T10:33:13;7.83;;;5.80;;
7983;SDS011;4037;47.980;10.172;2024-01-27T10:35:40;9.30;;;7.23;;
7983;SDS011;4037;47.980;10.172;2024-01-27T10:38:05;7.27;;;5.03;;
7983;SDS011;4037;47.980;10.172;2024-01-27T10:40:32;6.90;;;4.13;;
7983;SDS011;4037;47.980;10.172;2024-01-27T10:43:02;7.73;;;4.60;;
7983;SDS011;4037;47.980;10.172;2024-01-27T10:45:35;6.83;;;4.67;;
7983;SDS011;4037;47.980;10.172;2024-01-27T10:48:02;9.50;;;4.57;;
7983;SDS011;4037;47.980;10.172;2024-01-27T10:50:28;9.27;;;5.07;;
7983;SDS011;4037;47.980;10.172;2024-01-27T10:52:56;10.00;;;5.07;;
7983;SDS011;4037;47.980;10.172;2024-01-27T10:55:23;6.13;;;3.83;;
7983;SDS011;4037;47.980;10.172;2024-01-27T10:57:50;5.70;;;4.10;;
7983;SDS011;4037;47.980;10.172;2024-01-27T11:00:18;7.93;;;4.30;;
7983;SDS011;4037;47.980;10.172;2024-01-27T11:02:44;7.53;;;4.10;;
7983;SDS011;4037;47.980;10.172;2024-01-27T11:05:11;6.63;;;4.23;;
7983;SDS011;4037;47.980;10.172;2024-01-27T11:07:39;8.87;;;4.80;;
7983;SDS011;4037;47.980;10.172;2024-01-27T11:10:07;6.73;;;4.57;;
7983;SDS011;4037;47.980;10.172;2024-01-27T11:12:33;6.67;;;4.33;;
7983;SDS011;4037;47.980;10.172;2024-01-27T11:14:59;5.17;;;3.97;;
7983;SDS011;4037;47.980;10.172;2024-01-27T11:17:25;10.17;;;4.70;;
7983;SDS011;4037;47.980;10.172;2024-01-27T11:19:55;6.43;;;4.57;;
7983;SDS011;4037;47.980;10.172;2024-01-27T11:22:24;7.50;;;4.37;;
7983;SDS011;4037;47.980;10.172;2024-01-27T11:24:51;8.50;;;4.90;;
7983;SDS011;4037;47.980;10.172;2024-01-27T11:27:17;9.57;;;4.70;;
7983;SDS011;4037;47.980;10.172;2024-01-27T11:29:47;6.37;;;4.77;;
7983;SDS011;4037;47.980;10.172;2024-01-27T11:32:13;7.43;;;4.00;;
7983;SDS011;4037;47.980;10.172;2024-01-27T11:34:44;7.13;;;3.77;;
7983;SDS011;4037;47.980;10.172;2024-01-27T11:37:19;7.67;;;3.77;;
7983;SDS011;4037;47.980;10.172;2024-01-27T11:39:50;8.00;;;3.13;;
7983;SDS011;4037;47.980;10.172;2024-01-27T11:42:16;7.10;;;4.00;;
7983;SDS011;4037;47.980;10.172;2024-01-27T11:44:42;5.80;;;3.67;;
7983;SDS011;4037;47.980;10.172;2024-01-27T11:47:14;6.13;;;4.00;;
7983;SDS011;4037;47.980;10.172;2024-01-27T11:49:40;7.13;;;3.70;;
7983;SDS011;4037;47.980;10.172;2024-01-27T11:52:07;6.53;;;3.83;;
7983;SDS011;4037;47.980;10.172;2024-01-27T11:54:33;6.93;;;3.33;;
7983;SDS011;4037;47.980;10.172;2024-01-27T11:57:00;8.83;;;3.77;;
7983;SDS011;4037;47.980;10.172;2024-01-27T11:59:26;6.60;;;3.63;;
7983;SDS011;4037;47.980;10.172;2024-01-27T12:01:52;6.77;;;3.87;;
7983;SDS011;4037;47.980;10.172;2024-01-27T12:04:19;5.87;;;3.70;;
7983;SDS011;4037;47.980;10.172;2024-01-27T12:06:46;7.33;;;4.00;;
7983;SDS011;4037;47.980;10.172;2024-01-27T12:09:12;8.90;;;3.40;;
7983;SDS011;4037;47.980;10.172;2024-01-27T12:11:41;5.57;;;3.43;;
7983;SDS011;4037;47.980;10.172;2024-01-27T12:14:07;4.77;;;2.87;;
7983;SDS011;4037;47.980;10.172;2024-01-27T12:16:34;4.90;;;3.13;;
7983;SDS011;4037;47.980;10.172;2024-01-27T12:19:00;5.17;;;3.50;;
7983;SDS011;4037;47.980;10.172;2024-01-27T12:21:26;5.17;;;3.10;;
7983;SDS011;4037;47.980;10.172;2024-01-27T12:23:53;4.50;;;3.23;;
7983;SDS011;4037;47.980;10.172;2024-01-27T12:26:26;4.63;;;3.13;;
7983;SDS011;4037;47.980;10.172;2024-01-27T12:28:53;6.13;;;3.03;;
7983;SDS011;4037;47.980;10.172;2024-01-27T12:31:20;5.43;;;3.20;;
7983;SDS011;4037;47.980;10.172;2024-01-27T12:33:48;5.10;;;2.93;;
7983;SDS011;4037;47.980;10.172;2024-01-27T12:36:16;7.93;;;3.17;;
7983;SDS011;4037;47.980;10.172;2024-01-27T12:38:44;5.07;;;3.13;;
7983;SDS011;4037;47.980;10.172;2024-01-27T12:41:11;4.15;;;2.60;;
7983;SDS011;4037;47.980;10.172;2024-01-27T12:43:37;5.85;;;2.28;;
7983;SDS011;4037;47.980;10.172;2024-01-27T12:46:03;4.22;;;2.65;;
7983;SDS011;4037;47.980;10.172;2024-01-27T12:48:30;6.32;;;2.85;;
7983;SDS011;4037;47.980;10.172;2024-01-27T12:50:56;4.05;;;2.53;;
7983;SDS011;4037;47.980;10.172;2024-01-27T12:53:22;5.45;;;2.53;;
7983;SDS011;4037;47.980;10.172;2024-01-27T12:55:48;3.75;;;2.33;;
7983;SDS011;4037;47.980;10.172;2024-01-27T12:58:14;3.67;;;2.33;;
7983;SDS011;4037;47.980;10.172;2024-01-27T13:00:41;2.67;;;2.30;;
7983;SDS011;4037;47.980;10.172;2024-01-27T13:03:07;4.40;;;2.03;;
7983;SDS011;4037;47.980;10.172;2024-01-27T13:05:33;4.80;;;1.85;;
7983;SDS011;4037;47.980;10.172;2024-01-27T13:07:59;4.50;;;2.10;;
7983;SDS011;4037;47.980;10.172;2024-01-27T13:10:25;4.05;;;2.30;;
7983;SDS011;4037;47.980;10.172;2024-01-27T13:12:50;4.30;;;2.08;;
7983;SDS011;4037;47.980;10.172;2024-01-27T13:15:16;2.45;;;1.60;;
7983;SDS011;4037;47.980;10.172;2024-01-27T13:17:41;5.38;;;2.30;;
7983;SDS011;4037;47.980;10.172;2024-01-27T13:20:08;4.68;;;2.13;;
7983;SDS011;4037;47.980;10.172;2024-01-27T13:22:34;4.40;;;2.08;;
7983;SDS011;4037;47.980;10.172;2024-01-27T13:25:00;3.45;;;2.03;;
7983;SDS011;4037;47.980;10.172;2024-01-27T13:27:29;3.72;;;1.77;;
7983;SDS011;4037;47.980;10.172;2024-01-27T13:29:55;3.63;;;2.20;;
7983;SDS011;4037;47.980;10.172;2024-01-27T13:32:21;3.55;;;2.05;;
7983;SDS011;4037;47.980;10.172;2024-01-27T13:34:47;3.60;;;1.98;;
7983;SDS011;4037;47.980;10.172;2024-01-27T13:37:13;3.75;;;2.10;;
7983;SDS011;4037;47.980;10.172;2024-01-27T13:39:41;5.80;;;2.30;;
7983;SDS011;4037;47.980;10.172;2024-01-27T13:42:07;5.65;;;3.72;;
7983;SDS011;4037;47.980;10.172;2024-01-27T13:44:33;5.50;;;4.50;;
7983;SDS011;4037;47.980;10.172;2024-01-27T13:47:01;5.93;;;2.60;;
7983;SDS011;4037;47.980;10.172;2024-01-27T13:49:27;3.80;;;2.40;;
7983;SDS011;4037;47.980;10.172;2024-01-27T13:51:53;2.40;;;2.05;;
7983;SDS011;4037;47.980;10.172;2024-01-27T13:54:19;3.92;;;2.65;;
7983;SDS011;4037;47.980;10.172;2024-01-27T13:56:45;7.28;;;4.47;;
7983;SDS011;4037;47.980;10.172;2024-01-27T13:59:11;3.60;;;1.90;;
7983;SDS011;4037;47.980;10.172;2024-01-27T14:01:37;3.05;;;1.70;;
7983;SDS011;4037;47.980;10.172;2024-01-27T14:04:03;4.35;;;2.80;;
7983;SDS011;4037;47.980;10.172;2024-01-27T14:06:30;3.33;;;2.20;;
7983;SDS011;4037;47.980;10.172;2024-01-27T14:08:56;3.75;;;2.10;;
7983;SDS011;4037;47.980;10.172;2024-01-27T14:11:22;5.78;;;4.45;;
7983;SDS011;4037;47.980;10.172;2024-01-27T14:13:48;5.20;;;3.20;;
7983;SDS011;4037;47.980;10.172;2024-01-27T14:16:14;4.28;;;2.90;;
7983;SDS011;4037;47.980;10.172;2024-01-27T14:18:39;4.22;;;2.50;;
7983;SDS011;4037;47.980;10.172;2024-01-27T14:21:07;3.83;;;2.85;;
7983;SDS011;4037;47.980;10.172;2024-01-27T14:23:33;4.15;;;3.10;;
7983;SDS011;4037;47.980;10.172;2024-01-27T14:25:59;3.80;;;2.50;;
7983;SDS011;4037;47.980;10.172;2024-01-27T14:28:25;4.35;;;3.22;;
7983;SDS011;4037;47.980;10.172;2024-01-27T14:30:51;5.35;;;3.47;;
7983;SDS011;4037;47.980;10.172;2024-01-27T14:33:17;5.40;;;3.70;;
7983;SDS011;4037;47.980;10.172;2024-01-27T14:35:46;5.45;;;3.08;;
7983;SDS011;4037;47.980;10.172;2024-01-27T14:38:12;7.05;;;3.22;;
7983;SDS011;4037;47.980;10.172;2024-01-27T14:40:38;7.68;;;4.88;;
7983;SDS011;4037;47.980;10.172;2024-01-27T14:43:05;6.72;;;4.07;;
7983;SDS011;4037;47.980;10.172;2024-01-27T14:45:33;5.40;;;3.67;;
7983;SDS011;4037;47.980;10.172;2024-01-27T14:48:00;4.77;;;3.60;;
7983;SDS011;4037;47.980;10.172;2024-01-27T14:50:27;5.93;;;3.60;;
7983;SDS011;4037;47.980;10.172;2024-01-27T14:52:53;5.73;;;3.37;;
7983;SDS011;4037;47.980;10.172;2024-01-27T14:55:19;7.70;;;4.23;;